sensor_id;sensor_type;location;lat;lon;timestamp;P1;durP1;ratioP1;P2;durP2;ratioP2
27979;SDS011;15315;50.836;4.430;2023-04-03T00:02:08;18.88;;;8.55;;
27979;SDS011;15315;50.836;4.430;2023-04-03T00:12:09;16.35;;;8.82;;
27979;SDS011;15315;50.836;4.430;2023-04-03T00:22:10;17.00;;;8.43;;
27979;SDS011;15315;50.836;4.430;2023-04-03T00:32:11;13.57;;;7.70;;
27979;SDS011;15315;50.836;4.430;2023-04-03T00:42:11;15.23;;;7.82;;
27979;SDS011;15315;50.836;4.430;2023-04-03T00:52:14;10.93;;;6.65;;
27979;SDS011;15315;50.836;4.430;2023-04-03T01:02:18;14.60;;;7.32;;
27979;SDS011;15315;50.836;4.430;2023-04-03T01:12:26;13.98;;;6.45;;
27979;SDS011;15315;50.836;4.430;2023-04-03T01:22:29;13.85;;;6.57;;
27979;SDS011;15315;50.836;4.430;2023-04-03T01:32:36;10.15;;;6.75;;
27979;SDS011;15315;50.836;4.430;2023-04-03T01:42:36;14.00;;;6.97;;
27979;SDS011;15315;50.836;4.430;2023-04-03T01:52:36;13.43;;;7.35;;
27979;SDS011;15315;50.836;4.430;2023-04-03T02:02:37;14.63;;;7.00;;
27979;SDS011;15315;50.836;4.430;2023-04-03T02:12:37;13.85;;;6.22;;
27979;SDS011;15315;50.836;4.430;2023-04-03T02:22:37;13.80;;;6.72;;
27979;SDS011;15315;50.836;4.430;2023-04-03T02:32:38;11.38;;;6.38;;
27979;SDS011;15315;50.836;4.430;2023-04-03T02:42:38;13.38;;;6.65;;
27979;SDS011;15315;50.836;4.430;2023-04-03T02:52:38;8.55;;;6.13;;
27979;SDS011;15315;50.836;4.430;2023-04-03T03:02:39;10.95;;;6.10;;
27979;SDS011;15315;50.836;4.430;2023-04-03T03:12:40;12.53;;;6.60;;
27979;SDS011;15315;50.836;4.430;2023-04-03T03:22:40;10.38;;;6.28;;
27979;SDS011;15315;50.836;4.430;2023-04-03T03:32:41;11.35;;;6.60;;
27979;SDS011;15315;50.836;4.430;2023-04-03T03:42:41;15.80;;;6.90;;
27979;SDS011;15315;50.836;4.430;2023-04-03T03:52:41;14.43;;;6.70;;
27979;SDS011;15315;50.836;4.430;2023-04-03T04:02:42;9.90;;;6.65;;
27979;SDS011;15315;50.836;4.430;2023-04-03T04:12:43;16.35;;;7.50;;
27979;SDS011;15315;50.836;4.430;2023-04-03T04:22:43;15.80;;;7.07;;
27979;SDS011;15315;50.836;4.430;2023-04-03T04:32:44;15.52;;;7.70;;
27979;SDS011;15315;50.836;4.430;2023-04-03T04:42:44;15.77;;;8.20;;
27979;SDS011;15315;50.836;4.430;2023-04-03T04:52:45;17.42;;;8.63;;
27979;SDS011;15315;50.836;4.430;2023-04-03T05:02:45;13.70;;;8.23;;
27979;SDS011;15315;50.836;4.430;2023-04-03T05:12:46;18.42;;;8.65;;
27979;SDS011;15315;50.836;4.430;2023-04-03T05:22:46;16.00;;;9.20;;
27979;SDS011;15315;50.836;4.430;2023-04-03T05:32:46;18.00;;;9.20;;
27979;SDS011;15315;50.836;4.430;2023-04-03T05:42:47;17.25;;;9.55;;
27979;SDS011;15315;50.836;4.430;2023-04-03T05:52:48;15.32;;;9.25;;
27979;SDS011;15315;50.836;4.430;2023-04-03T06:02:51;18.03;;;10.13;;
27979;SDS011;15315;50.836;4.430;2023-04-03T06:12:51;15.38;;;9.73;;
27979;SDS011;15315;50.836;4.430;2023-04-03T06:22:51;18.70;;;9.93;;
27979;SDS011;15315;50.836;4.430;2023-04-03T06:32:52;14.48;;;9.48;;
27979;SDS011;15315;50.836;4.430;2023-04-03T06:42:52;18.45;;;10.95;;
27979;SDS011;15315;50.836;4.430;2023-04-03T06:52:52;18.95;;;9.95;;
27979;SDS011;15315;50.836;4.430;2023-04-03T07:02:53;20.98;;;10.00;;
27979;SDS011;15315;50.836;4.430;2023-04-03T07:12:53;20.45;;;10.25;;
27979;SDS011;15315;50.836;4.430;2023-04-03T07:22:54;17.75;;;8.80;;
27979;SDS011;15315;50.836;4.430;2023-04-03T07:32:54;16.88;;;8.80;;
27979;SDS011;15315;50.836;4.430;2023-04-03T07:42:55;15.70;;;8.18;;
27979;SDS011;15315;50.836;4.430;2023-04-03T07:52:56;14.02;;;8.48;;
27979;SDS011;15315;50.836;4.430;2023-04-03T08:02:57;11.07;;;6.78;;
27979;SDS011;15315;50.836;4.430;2023-04-03T08:12:58;20.52;;;6.72;;
27979;SDS011;15315;50.836;4.430;2023-04-03T08:22:58;12.00;;;5.43;;
27979;SDS011;15315;50.836;4.430;2023-04-03T08:33:02;11.63;;;6.28;;
27979;SDS011;15315;50.836;4.430;2023-04-03T08:43:19;15.30;;;6.40;;
27979;SDS011;15315;50.836;4.430;2023-04-03T08:53:35;11.88;;;5.85;;
27979;SDS011;15315;50.836;4.430;2023-04-03T09:03:40;9.27;;;4.97;;
27979;SDS011;15315;50.836;4.430;2023-04-03T09:23:51;14.15;;;5.13;;
27979;SDS011;15315;50.836;4.430;2023-04-03T09:33:55;10.65;;;3.72;;
27979;SDS011;15315;50.836;4.430;2023-04-03T09:53:58;9.50;;;3.15;;
27979;SDS011;15315;50.836;4.430;2023-04-03T10:04:04;6.00;;;2.63;;
27979;SDS011;15315;50.836;4.430;2023-04-03T10:14:15;4.53;;;2.20;;
27979;SDS011;15315;50.836;4.430;2023-04-03T10:24:21;7.03;;;3.53;;
27979;SDS011;15315;50.836;4.430;2023-04-03T10:34:29;5.43;;;2.30;;
27979;SDS011;15315;50.836;4.430;2023-04-03T11:15:29;6.82;;;2.15;;
27979;SDS011;15315;50.836;4.430;2023-04-03T11:25:33;4.60;;;1.95;;
27979;SDS011;15315;50.836;4.430;2023-04-03T11:35:37;7.40;;;1.80;;
27979;SDS011;15315;50.836;4.430;2023-04-03T12:05:50;15.40;;;2.10;;
27979;SDS011;15315;50.836;4.430;2023-04-03T12:16:07;8.68;;;2.45;;
27979;SDS011;15315;50.836;4.430;2023-04-03T12:26:20;5.63;;;1.63;;
27979;SDS011;15315;50.836;4.430;2023-04-03T12:47:00;5.43;;;1.60;;
27979;SDS011;15315;50.836;4.430;2023-04-03T12:57:21;4.63;;;1.30;;
27979;SDS011;15315;50.836;4.430;2023-04-03T13:07:26;2.72;;;1.48;;
27979;SDS011;15315;50.836;4.430;2023-04-03T13:17:41;5.20;;;1.50;;
27979;SDS011;15315;50.836;4.430;2023-04-03T13:27:42;6.88;;;1.98;;
27979;SDS011;15315;50.836;4.430;2023-04-03T13:37:53;4.30;;;1.45;;
27979;SDS011;15315;50.836;4.430;2023-04-03T13:48:17;6.15;;;1.90;;
27979;SDS011;15315;50.836;4.430;2023-04-03T13:58:27;6.32;;;1.60;;
27979;SDS011;15315;50.836;4.430;2023-04-03T14:08:29;4.57;;;1.90;;
27979;SDS011;15315;50.836;4.430;2023-04-03T14:18:30;6.03;;;1.67;;
27979;SDS011;15315;50.836;4.430;2023-04-03T14:28:31;9.27;;;2.03;;
27979;SDS011;15315;50.836;4.430;2023-04-03T14:38:31;3.95;;;1.80;;
27979;SDS011;15315;50.836;4.430;2023-04-03T14:48:32;3.75;;;1.15;;
27979;SDS011;15315;50.836;4.430;2023-04-03T14:58:32;6.95;;;1.98;;
27979;SDS011;15315;50.836;4.430;2023-04-03T15:08:33;3.50;;;1.53;;
27979;SDS011;15315;50.836;4.430;2023-04-03T15:18:35;2.88;;;1.50;;
27979;SDS011;15315;50.836;4.430;2023-04-03T15:28:39;2.97;;;1.53;;
27979;SDS011;15315;50.836;4.430;2023-04-03T15:38:41;4.28;;;1.65;;
27979;SDS011;15315;50.836;4.430;2023-04-03T15:48:41;3.95;;;2.00;;
27979;SDS011;15315;50.836;4.430;2023-04-03T15:58:42;3.90;;;1.98;;
27979;SDS011;15315;50.836;4.430;2023-04-03T16:08:42;6.70;;;1.80;;
27979;SDS011;15315;50.836;4.430;2023-04-03T16:18:43;8.57;;;2.20;;
27979;SDS011;15315;50.836;4.430;2023-04-03T16:28:44;5.47;;;2.00;;
27979;SDS011;15315;50.836;4.430;2023-04-03T16:38:45;10.18;;;2.03;;
27979;SDS011;15315;50.836;4.430;2023-04-03T16:48:45;6.60;;;2.60;;
27979;SDS011;15315;50.836;4.430;2023-04-03T16:58:45;6.25;;;2.13;;
27979;SDS011;15315;50.836;4.430;2023-04-03T17:08:47;4.97;;;2.58;;
27979;SDS011;15315;50.836;4.430;2023-04-03T17:18:48;3.92;;;2.03;;
27979;SDS011;15315;50.836;4.430;2023-04-03T17:28:49;6.67;;;1.97;;
27979;SDS011;15315;50.836;4.430;2023-04-03T17:38:50;4.18;;;1.98;;
27979;SDS011;15315;50.836;4.430;2023-04-03T17:48:51;7.68;;;2.38;;
27979;SDS011;15315;50.836;4.430;2023-04-03T17:58:55;4.90;;;2.20;;
27979;SDS011;15315;50.836;4.430;2023-04-03T18:19:04;3.97;;;1.77;;
27979;SDS011;15315;50.836;4.430;2023-04-03T18:29:06;5.60;;;1.73;;
27979;SDS011;15315;50.836;4.430;2023-04-03T18:39:09;8.20;;;2.40;;
27979;SDS011;15315;50.836;4.430;2023-04-03T18:49:10;5.57;;;2.00;;
27979;SDS011;15315;50.836;4.430;2023-04-03T18:59:11;5.53;;;1.90;;
27979;SDS011;15315;50.836;4.430;2023-04-03T19:09:11;7.65;;;2.50;;
27979;SDS011;15315;50.836;4.430;2023-04-03T19:19:12;7.35;;;2.15;;
27979;SDS011;15315;50.836;4.430;2023-04-03T19:29:12;5.82;;;2.63;;
27979;SDS011;15315;50.836;4.430;2023-04-03T19:39:13;6.13;;;2.50;;
27979;SDS011;15315;50.836;4.430;2023-04-03T19:49:13;6.63;;;2.13;;
27979;SDS011;15315;50.836;4.430;2023-04-03T19:59:14;7.28;;;2.22;;
27979;SDS011;15315;50.836;4.430;2023-04-03T20:09:15;4.78;;;2.50;;
27979;SDS011;15315;50.836;4.430;2023-04-03T20:19:17;11.38;;;2.90;;
27979;SDS011;15315;50.836;4.430;2023-04-03T20:29:18;10.10;;;2.75;;
27979;SDS011;15315;50.836;4.430;2023-04-03T20:39:19;9.68;;;2.60;;
27979;SDS011;15315;50.836;4.430;2023-04-03T20:49:22;9.35;;;2.90;;
27979;SDS011;15315;50.836;4.430;2023-04-03T20:59:23;5.50;;;2.47;;
27979;SDS011;15315;50.836;4.430;2023-04-03T21:20:02;11.02;;;2.38;;
27979;SDS011;15315;50.836;4.430;2023-04-03T21:30:03;17.00;;;3.50;;
27979;SDS011;15315;50.836;4.430;2023-04-03T21:40:03;12.07;;;2.87;;
27979;SDS011;15315;50.836;4.430;2023-04-03T21:50:04;11.43;;;3.13;;
27979;SDS011;15315;50.836;4.430;2023-04-03T22:00:05;6.80;;;2.75;;
27979;SDS011;15315;50.836;4.430;2023-04-03T22:10:08;7.53;;;2.33;;
27979;SDS011;15315;50.836;4.430;2023-04-03T22:20:08;6.90;;;2.25;;
27979;SDS011;15315;50.836;4.430;2023-04-03T22:30:09;6.28;;;2.13;;
27979;SDS011;15315;50.836;4.430;2023-04-03T22:40:10;10.50;;;2.40;;
27979;SDS011;15315;50.836;4.430;2023-04-03T22:50:11;7.78;;;2.33;;
27979;SDS011;15315;50.836;4.430;2023-04-03T23:00:12;5.78;;;2.50;;
27979;SDS011;15315;50.836;4.430;2023-04-03T23:10:14;5.25;;;2.05;;
27979;SDS011;15315;50.836;4.430;2023-04-03T23:20:15;12.07;;;2.25;;
27979;SDS011;15315;50.836;4.430;2023-04-03T23:30:16;8.48;;;2.42;;
27979;SDS011;15315;50.836;4.430;2023-04-03T23:40:16;4.47;;;2.08;;
27979;SDS011;15315;50.836;4.430;2023-04-03T23:50:16;6.88;;;2.33;;
